sensor_id;sensor_type;location;lat;lon;timestamp;pressure;altitude;pressure_sealevel;temperature;humidity
67099;BME280;54288;53.046;5.668;2022-09-03T00:00:10;101518.38;;;17.69;54.47
67099;BME280;54288;53.046;5.668;2022-09-03T00:05:24;101502.97;;;17.57;54.24
67099;BME280;54288;53.046;5.668;2022-09-03T00:08:11;101511.94;;;17.53;54.87
67099;BME280;54288;53.046;5.668;2022-09-03T00:10:58;101510.28;;;17.50;55.22
67099;BME280;54288;53.046;5.668;2022-09-03T00:13:35;101510.56;;;17.43;55.20
67099;BME280;54288;53.046;5.668;2022-09-03T00:16:08;101500.41;;;17.31;55.29
67099;BME280;54288;53.046;5.668;2022-09-03T00:18:42;101502.25;;;17.29;55.21
67099;BME280;54288;53.046;5.668;2022-09-03T00:24:06;101508.66;;;17.23;55.24
67099;BME280;54288;53.046;5.668;2022-09-03T00:26:36;101500.00;;;17.18;55.03
67099;BME280;54288;53.046;5.668;2022-09-03T00:29:15;101509.84;;;17.15;55.25
67099;BME280;54288;53.046;5.668;2022-09-03T00:31:53;101503.16;;;17.05;56.03
67099;BME280;54288;53.046;5.668;2022-09-03T00:34:34;101508.47;;;17.05;55.29
67099;BME280;54288;53.046;5.668;2022-09-03T00:37:04;101500.75;;;16.99;55.43
67099;BME280;54288;53.046;5.668;2022-09-03T00:39:29;101504.34;;;16.96;55.38
67099;BME280;54288;53.046;5.668;2022-09-03T00:53:04;101508.50;;;16.79;55.54
67099;BME280;54288;53.046;5.668;2022-09-03T00:55:48;101506.84;;;16.76;55.50
67099;BME280;54288;53.046;5.668;2022-09-03T00:58:51;101505.25;;;16.72;55.66
67099;BME280;54288;53.046;5.668;2022-09-03T01:01:35;101508.03;;;16.68;56.12
67099;BME280;54288;53.046;5.668;2022-09-03T01:12:18;101503.50;;;16.47;55.57
67099;BME280;54288;53.046;5.668;2022-09-03T01:21:02;101506.41;;;16.38;56.72
67099;BME280;54288;53.046;5.668;2022-09-03T01:45:53;101510.63;;;16.43;56.26
67099;BME280;54288;53.046;5.668;2022-09-03T01:51:27;101508.88;;;16.44;55.86
67099;BME280;54288;53.046;5.668;2022-09-03T02:02:37;101513.91;;;16.51;56.23
67099;BME280;54288;53.046;5.668;2022-09-03T02:05:14;101505.09;;;16.51;55.96
67099;BME280;54288;53.046;5.668;2022-09-03T02:07:50;101507.66;;;16.54;56.13
67099;BME280;54288;53.046;5.668;2022-09-03T02:10:23;101507.59;;;16.55;55.72
67099;BME280;54288;53.046;5.668;2022-09-03T02:12:58;101492.91;;;16.47;56.02
67099;BME280;54288;53.046;5.668;2022-09-03T02:15:26;101504.13;;;16.53;56.19
67099;BME280;54288;53.046;5.668;2022-09-03T02:17:56;101502.41;;;16.52;55.59
67099;BME280;54288;53.046;5.668;2022-09-03T02:20:27;101497.88;;;16.56;55.73
67099;BME280;54288;53.046;5.668;2022-09-03T02:22:55;101504.88;;;16.57;55.76
67099;BME280;54288;53.046;5.668;2022-09-03T02:25:29;101499.75;;;16.52;56.06
67099;BME280;54288;53.046;5.668;2022-09-03T02:27:56;101505.72;;;16.59;55.84
67099;BME280;54288;53.046;5.668;2022-09-03T02:30:22;101497.78;;;16.59;56.19
67099;BME280;54288;53.046;5.668;2022-09-03T02:32:48;101496.91;;;16.58;55.66
67099;BME280;54288;53.046;5.668;2022-09-03T02:35:14;101496.91;;;16.58;55.89
67099;BME280;54288;53.046;5.668;2022-09-03T02:37:39;101496.81;;;16.61;55.41
67099;BME280;54288;53.046;5.668;2022-09-03T02:40:06;101492.38;;;16.62;55.32
67099;BME280;54288;53.046;5.668;2022-09-03T02:42:35;101492.38;;;16.62;55.85
67099;BME280;54288;53.046;5.668;2022-09-03T02:45:26;101487.19;;;16.59;55.38
67099;BME280;54288;53.046;5.668;2022-09-03T02:47:58;101498.69;;;16.58;55.29
67099;BME280;54288;53.046;5.668;2022-09-03T02:50:25;101480.19;;;16.58;54.92
67099;BME280;54288;53.046;5.668;2022-09-03T02:52:51;101481.91;;;16.59;54.78
67099;BME280;54288;53.046;5.668;2022-09-03T02:55:18;101471.44;;;16.56;55.08
67099;BME280;54288;53.046;5.668;2022-09-03T02:57:44;101484.44;;;16.62;54.75
67099;BME280;54288;53.046;5.668;2022-09-03T03:00:11;101480.38;;;16.52;55.26
67099;BME280;54288;53.046;5.668;2022-09-03T03:02:37;101471.75;;;16.47;55.56
67099;BME280;54288;53.046;5.668;2022-09-03T03:05:03;101485.78;;;16.49;55.88
67099;BME280;54288;53.046;5.668;2022-09-03T03:07:35;101485.75;;;16.50;55.82
67099;BME280;54288;53.046;5.668;2022-09-03T03:10:03;101477.94;;;16.46;55.79
67099;BME280;54288;53.046;5.668;2022-09-03T03:12:28;101481.50;;;16.45;55.66
67099;BME280;54288;53.046;5.668;2022-09-03T03:14:55;101478.97;;;16.42;55.27
67099;BME280;54288;53.046;5.668;2022-09-03T03:17:21;101479.91;;;16.41;55.42
67099;BME280;54288;53.046;5.668;2022-09-03T03:19:47;101487.75;;;16.42;55.46
67099;BME280;54288;53.046;5.668;2022-09-03T03:22:13;101489.59;;;16.40;55.65
67099;BME280;54288;53.046;5.668;2022-09-03T03:24:39;101483.44;;;16.40;55.46
67099;BME280;54288;53.046;5.668;2022-09-03T03:27:05;101479.16;;;16.36;55.87
67099;BME280;54288;53.046;5.668;2022-09-03T03:29:32;101466.19;;;16.28;55.74
67099;BME280;54288;53.046;5.668;2022-09-03T03:31:58;101487.19;;;16.33;55.62
67099;BME280;54288;53.046;5.668;2022-09-03T03:34:24;101486.25;;;16.34;56.28
67099;BME280;54288;53.046;5.668;2022-09-03T03:36:49;101484.75;;;16.27;55.89
67099;BME280;54288;53.046;5.668;2022-09-03T03:39:15;101489.09;;;16.28;56.05
67099;BME280;54288;53.046;5.668;2022-09-03T03:41:40;101483.09;;;16.23;55.96
67099;BME280;54288;53.046;5.668;2022-09-03T03:44:07;101483.09;;;16.23;56.33
67099;BME280;54288;53.046;5.668;2022-09-03T03:46:38;101502.28;;;16.29;56.19
67099;BME280;54288;53.046;5.668;2022-09-03T03:49:05;101494.41;;;16.28;56.32
67099;BME280;54288;53.046;5.668;2022-09-03T03:51:32;101497.91;;;16.28;56.20
67099;BME280;54288;53.046;5.668;2022-09-03T03:53:58;101509.34;;;16.29;55.97
67099;BME280;54288;53.046;5.668;2022-09-03T03:56:25;101495.31;;;16.27;56.38
67099;BME280;54288;53.046;5.668;2022-09-03T03:58:52;101477.22;;;16.15;56.33
67099;BME280;54288;53.046;5.668;2022-09-03T04:01:21;101503.38;;;16.24;55.60
67099;BME280;54288;53.046;5.668;2022-09-03T04:03:47;101491.16;;;16.20;56.01
67099;BME280;54288;53.046;5.668;2022-09-03T04:06:16;101485.16;;;16.15;56.03
67099;BME280;54288;53.046;5.668;2022-09-03T04:08:44;101498.13;;;16.22;55.96
67099;BME280;54288;53.046;5.668;2022-09-03T04:11:13;101499.13;;;16.18;56.54
67099;BME280;54288;53.046;5.668;2022-09-03T04:13:42;101490.44;;;16.15;56.22
67099;BME280;54288;53.046;5.668;2022-09-03T04:16:13;101490.53;;;16.12;56.56
67099;BME280;54288;53.046;5.668;2022-09-03T04:18:40;101482.69;;;16.10;56.61
67099;BME280;54288;53.046;5.668;2022-09-03T04:23:42;101487.28;;;16.04;56.97
67099;BME280;54288;53.046;5.668;2022-09-03T04:26:10;101483.91;;;15.99;56.98
67099;BME280;54288;53.046;5.668;2022-09-03T04:28:37;101480.47;;;15.97;57.22
67099;BME280;54288;53.046;5.668;2022-09-03T04:31:05;101475.28;;;15.94;56.95
67099;BME280;54288;53.046;5.668;2022-09-03T04:33:32;101478.84;;;15.93;57.13
67099;BME280;54288;53.046;5.668;2022-09-03T04:36:16;101490.16;;;15.96;57.12
67099;BME280;54288;53.046;5.668;2022-09-03T04:38:44;101481.44;;;15.94;57.13
67099;BME280;54288;53.046;5.668;2022-09-03T04:41:13;101488.47;;;15.94;57.12
67099;BME280;54288;53.046;5.668;2022-09-03T04:43:41;101481.63;;;15.88;57.25
67099;BME280;54288;53.046;5.668;2022-09-03T04:46:09;101487.75;;;15.89;57.75
67099;BME280;54288;53.046;5.668;2022-09-03T04:48:37;101477.31;;;15.86;57.88
67099;BME280;54288;53.046;5.668;2022-09-03T04:51:05;101480.00;;;15.84;58.21
67099;BME280;54288;53.046;5.668;2022-09-03T04:53:37;101483.56;;;15.83;58.02
67099;BME280;54288;53.046;5.668;2022-09-03T04:56:18;101482.75;;;15.81;57.88
67099;BME280;54288;53.046;5.668;2022-09-03T04:58:45;101482.84;;;15.78;57.82
67099;BME280;54288;53.046;5.668;2022-09-03T05:01:16;101465.63;;;15.67;58.38
67099;BME280;54288;53.046;5.668;2022-09-03T05:03:42;101470.97;;;15.64;58.36
67099;BME280;54288;53.046;5.668;2022-09-03T05:06:08;101468.50;;;15.59;58.60
67099;BME280;54288;53.046;5.668;2022-09-03T05:08:38;101484.97;;;15.66;58.67
67099;BME280;54288;53.046;5.668;2022-09-03T05:11:06;101476.44;;;15.58;58.58
67099;BME280;54288;53.046;5.668;2022-09-03T05:13:35;101497.31;;;15.67;58.51
67099;BME280;54288;53.046;5.668;2022-09-03T05:16:03;101486.84;;;15.62;58.60
67099;BME280;54288;53.046;5.668;2022-09-03T05:18:30;101490.19;;;15.69;58.65
67099;BME280;54288;53.046;5.668;2022-09-03T05:21:00;101466.69;;;15.60;58.81
67099;BME280;54288;53.046;5.668;2022-09-03T05:23:30;101478.84;;;15.65;58.24
67099;BME280;54288;53.046;5.668;2022-09-03T05:25:59;101490.06;;;15.72;58.36
67099;BME280;54288;53.046;5.668;2022-09-03T05:28:27;101480.44;;;15.71;58.68
67099;BME280;54288;53.046;5.668;2022-09-03T05:31:00;101490.91;;;15.74;58.70
67099;BME280;54288;53.046;5.668;2022-09-03T05:33:27;101483.94;;;15.71;58.23
67099;BME280;54288;53.046;5.668;2022-09-03T05:35:54;101478.81;;;15.67;59.02
67099;BME280;54288;53.046;5.668;2022-09-03T05:38:22;101469.34;;;15.60;58.66
67099;BME280;54288;53.046;5.668;2022-09-03T05:40:51;101472.81;;;15.62;58.49
67099;BME280;54288;53.046;5.668;2022-09-03T05:43:16;101477.25;;;15.60;59.01
67099;BME280;54288;53.046;5.668;2022-09-03T05:45:42;101455.66;;;15.47;59.01
67099;BME280;54288;53.046;5.668;2022-09-03T05:48:08;101465.31;;;15.48;59.24
67099;BME280;54288;53.046;5.668;2022-09-03T05:50:33;101482.69;;;15.55;59.07
67099;BME280;54288;53.046;5.668;2022-09-03T05:52:59;101467.03;;;15.49;58.92
67099;BME280;54288;53.046;5.668;2022-09-03T05:55:25;101480.19;;;15.51;58.98
67099;BME280;54288;53.046;5.668;2022-09-03T05:57:53;101482.72;;;15.54;59.62
67099;BME280;54288;53.046;5.668;2022-09-03T06:00:19;101479.13;;;15.56;59.72
67099;BME280;54288;53.046;5.668;2022-09-03T06:02:52;101472.81;;;15.62;59.11
67099;BME280;54288;53.046;5.668;2022-09-03T06:05:18;101477.69;;;15.74;59.10
67099;BME280;54288;53.046;5.668;2022-09-03T06:07:44;101470.22;;;15.86;58.79
67099;BME280;54288;53.046;5.668;2022-09-03T06:10:16;101465.94;;;16.10;58.03
67099;BME280;54288;53.046;5.668;2022-09-03T06:12:43;101477.25;;;16.41;57.56
67099;BME280;54288;53.046;5.668;2022-09-03T06:15:14;101466.31;;;16.51;56.88
67099;BME280;54288;53.046;5.668;2022-09-03T06:17:41;101473.84;;;16.62;56.05
67099;BME280;54288;53.046;5.668;2022-09-03T06:20:07;101465.59;;;16.71;55.91
67099;BME280;54288;53.046;5.668;2022-09-03T06:22:33;101483.19;;;16.96;55.74
67099;BME280;54288;53.046;5.668;2022-09-03T06:24:59;101487.91;;;17.11;55.29
67099;BME280;54288;53.046;5.668;2022-09-03T06:27:24;101456.69;;;16.98;55.36
67099;BME280;54288;53.046;5.668;2022-09-03T06:29:50;101477.41;;;17.33;54.55
67099;BME280;54288;53.046;5.668;2022-09-03T06:32:16;101479.72;;;17.42;54.14
67099;BME280;54288;53.046;5.668;2022-09-03T06:34:41;101461.25;;;17.40;53.41
67099;BME280;54288;53.046;5.668;2022-09-03T06:37:07;101474.38;;;17.65;53.40
67099;BME280;54288;53.046;5.668;2022-09-03T06:39:33;101465.34;;;17.70;53.20
67099;BME280;54288;53.046;5.668;2022-09-03T06:41:58;101476.25;;;17.84;53.10
67099;BME280;54288;53.046;5.668;2022-09-03T06:44:32;101484.88;;;17.89;52.77
67099;BME280;54288;53.046;5.668;2022-09-03T06:46:58;101485.19;;;18.03;52.58
67099;BME280;54288;53.046;5.668;2022-09-03T06:49:25;101483.81;;;18.15;52.44
67099;BME280;54288;53.046;5.668;2022-09-03T06:51:51;101477.97;;;18.07;52.37
67099;BME280;54288;53.046;5.668;2022-09-03T06:54:17;101476.84;;;18.34;52.11
67099;BME280;54288;53.046;5.668;2022-09-03T06:56:43;101483.31;;;18.48;51.25
67099;BME280;54288;53.046;5.668;2022-09-03T06:59:12;101473.56;;;18.49;50.70
67099;BME280;54288;53.046;5.668;2022-09-03T07:01:39;101466.53;;;18.48;50.83
67099;BME280;54288;53.046;5.668;2022-09-03T07:04:07;101462.34;;;18.42;51.49
67099;BME280;54288;53.046;5.668;2022-09-03T07:06:37;101488.00;;;18.62;50.79
67099;BME280;54288;53.046;5.668;2022-09-03T07:09:05;101481.44;;;18.70;51.37
67099;BME280;54288;53.046;5.668;2022-09-03T07:11:32;101490.28;;;18.71;50.05
67099;BME280;54288;53.046;5.668;2022-09-03T07:14:02;101483.50;;;18.84;50.73
67099;BME280;54288;53.046;5.668;2022-09-03T07:16:31;101482.72;;;19.20;49.39
67099;BME280;54288;53.046;5.668;2022-09-03T07:18:58;101492.31;;;19.43;49.13
67099;BME280;54288;53.046;5.668;2022-09-03T07:21:27;101484.00;;;19.32;49.36
67099;BME280;54288;53.046;5.668;2022-09-03T07:23:55;101477.50;;;19.37;49.22
67099;BME280;54288;53.046;5.668;2022-09-03T07:26:24;101478.16;;;19.61;48.55
67099;BME280;54288;53.046;5.668;2022-09-03T07:28:51;101485.44;;;19.57;48.24
67099;BME280;54288;53.046;5.668;2022-09-03T07:31:27;101487.16;;;19.77;48.33
67099;BME280;54288;53.046;5.668;2022-09-03T07:34:01;101488.34;;;19.88;48.19
67099;BME280;54288;53.046;5.668;2022-09-03T07:36:36;101469.66;;;20.08;47.20
67099;BME280;54288;53.046;5.668;2022-09-03T07:39:10;101482.47;;;20.17;47.54
67099;BME280;54288;53.046;5.668;2022-09-03T07:41:37;101483.66;;;20.12;46.83
67099;BME280;54288;53.046;5.668;2022-09-03T07:44:04;101472.31;;;19.90;46.87
67099;BME280;54288;53.046;5.668;2022-09-03T07:46:35;101481.97;;;20.28;47.36
67099;BME280;54288;53.046;5.668;2022-09-03T07:49:02;101473.19;;;20.60;46.39
67099;BME280;54288;53.046;5.668;2022-09-03T07:51:31;101479.13;;;20.82;45.62
67099;BME280;54288;53.046;5.668;2022-09-03T07:53:59;101480.22;;;20.78;45.80
67099;BME280;54288;53.046;5.668;2022-09-03T07:56:27;101483.34;;;21.03;45.35
67099;BME280;54288;53.046;5.668;2022-09-03T07:58:56;101485.97;;;21.20;44.22
67099;BME280;54288;53.046;5.668;2022-09-03T08:01:24;101475.44;;;21.01;45.61
67099;BME280;54288;53.046;5.668;2022-09-03T08:03:52;101476.13;;;21.05;44.74
67099;BME280;54288;53.046;5.668;2022-09-03T08:06:21;101470.75;;;21.06;44.66
67099;BME280;54288;53.046;5.668;2022-09-03T08:08:52;101466.84;;;20.96;45.29
67099;BME280;54288;53.046;5.668;2022-09-03T08:11:19;101461.91;;;20.89;44.49
67099;BME280;54288;53.046;5.668;2022-09-03T08:13:48;101477.53;;;21.12;44.72
67099;BME280;54288;53.046;5.668;2022-09-03T08:16:16;101469.31;;;21.16;44.39
67099;BME280;54288;53.046;5.668;2022-09-03T08:18:45;101478.38;;;21.45;44.62
67099;BME280;54288;53.046;5.668;2022-09-03T08:21:17;101481.63;;;21.50;44.13
67099;BME280;54288;53.046;5.668;2022-09-03T08:23:50;101453.19;;;21.50;44.60
67099;BME280;54288;53.046;5.668;2022-09-03T08:26:18;101483.16;;;21.86;43.22
67099;BME280;54288;53.046;5.668;2022-09-03T08:28:45;101485.44;;;22.08;43.63
67099;BME280;54288;53.046;5.668;2022-09-03T08:31:14;101480.03;;;22.09;43.16
67099;BME280;54288;53.046;5.668;2022-09-03T08:33:43;101479.44;;;21.89;43.52
67099;BME280;54288;53.046;5.668;2022-09-03T08:36:12;101473.41;;;22.01;43.44
67099;BME280;54288;53.046;5.668;2022-09-03T08:38:39;101481.06;;;22.07;43.14
67099;BME280;54288;53.046;5.668;2022-09-03T08:46:56;101475.63;;;22.38;43.03
67099;BME280;54288;53.046;5.668;2022-09-03T08:49:57;101475.19;;;22.75;42.43
67099;BME280;54288;53.046;5.668;2022-09-03T08:52:40;101483.25;;;23.03;42.20
67099;BME280;54288;53.046;5.668;2022-09-03T08:55:30;101488.03;;;22.98;42.06
67099;BME280;54288;53.046;5.668;2022-09-03T08:58:09;101480.97;;;22.97;41.04
67099;BME280;54288;53.046;5.668;2022-09-03T09:00:58;101481.72;;;22.99;41.92
67099;BME280;54288;53.046;5.668;2022-09-03T09:20:48;101494.44;;;23.09;40.96
67099;BME280;54288;53.046;5.668;2022-09-03T09:25:53;101487.56;;;23.47;40.25
67099;BME280;54288;53.046;5.668;2022-09-03T09:28:23;101488.22;;;23.51;40.25
67099;BME280;54288;53.046;5.668;2022-09-03T09:30:53;101478.03;;;23.84;40.03
67099;BME280;54288;53.046;5.668;2022-09-03T09:33:19;101480.38;;;23.76;38.69
67099;BME280;54288;53.046;5.668;2022-09-03T09:35:46;101473.31;;;23.75;38.84
67099;BME280;54288;53.046;5.668;2022-09-03T09:38:12;101476.81;;;24.16;38.51
67099;BME280;54288;53.046;5.668;2022-09-03T09:40:44;101477.00;;;24.39;39.17
67099;BME280;54288;53.046;5.668;2022-09-03T09:45:41;101476.31;;;23.97;38.93
67099;BME280;54288;53.046;5.668;2022-09-03T09:48:12;101476.13;;;24.00;39.45
67099;BME280;54288;53.046;5.668;2022-09-03T09:50:41;101458.78;;;24.05;38.96
67099;BME280;54288;53.046;5.668;2022-09-03T09:53:09;101476.06;;;24.40;38.44
67099;BME280;54288;53.046;5.668;2022-09-03T09:55:50;101472.16;;;24.32;38.32
67099;BME280;54288;53.046;5.668;2022-09-03T09:58:19;101465.34;;;24.40;38.67
67099;BME280;54288;53.046;5.668;2022-09-03T10:03:47;101454.38;;;24.57;38.21
67099;BME280;54288;53.046;5.668;2022-09-03T10:06:15;101462.41;;;24.57;38.21
67099;BME280;54288;53.046;5.668;2022-09-03T10:09:12;101466.78;;;24.71;38.63
67099;BME280;54288;53.046;5.668;2022-09-03T10:12:12;101458.13;;;24.80;37.85
67099;BME280;54288;53.046;5.668;2022-09-03T10:14:54;101474.31;;;24.91;37.00
67099;BME280;54288;53.046;5.668;2022-09-03T10:17:28;101466.00;;;24.44;38.15
67099;BME280;54288;53.046;5.668;2022-09-03T10:23:09;101465.16;;;24.56;37.70
67099;BME280;54288;53.046;5.668;2022-09-03T10:26:06;101466.69;;;24.72;38.19
67099;BME280;54288;53.046;5.668;2022-09-03T10:28:37;101472.06;;;24.85;37.89
67099;BME280;54288;53.046;5.668;2022-09-03T10:37:38;101469.50;;;25.08;37.34
67099;BME280;54288;53.046;5.668;2022-09-03T10:40:40;101466.72;;;25.35;37.27
67099;BME280;54288;53.046;5.668;2022-09-03T10:43:45;101464.00;;;25.22;37.04
67099;BME280;54288;53.046;5.668;2022-09-03T10:46:25;101472.06;;;25.22;37.28
67099;BME280;54288;53.046;5.668;2022-09-03T10:54:46;101470.97;;;25.12;36.60
67099;BME280;54288;53.046;5.668;2022-09-03T10:57:40;101459.72;;;25.07;36.18
67099;BME280;54288;53.046;5.668;2022-09-03T11:00:12;101464.34;;;25.18;36.85
67099;BME280;54288;53.046;5.668;2022-09-03T11:05:38;101452.53;;;25.33;35.92
67099;BME280;54288;53.046;5.668;2022-09-03T11:08:15;101459.19;;;25.40;35.60
67099;BME280;54288;53.046;5.668;2022-09-03T11:11:01;101462.38;;;25.57;35.46
67099;BME280;54288;53.046;5.668;2022-09-03T11:14:07;101459.16;;;25.52;35.16
67099;BME280;54288;53.046;5.668;2022-09-03T11:16:31;101452.44;;;25.70;35.54
67099;BME280;54288;53.046;5.668;2022-09-03T11:19:25;101446.44;;;25.67;35.25
67099;BME280;54288;53.046;5.668;2022-09-03T11:21:53;101430.78;;;25.61;35.15
67099;BME280;54288;53.046;5.668;2022-09-03T11:24:22;101425.22;;;25.64;34.77
67099;BME280;54288;53.046;5.668;2022-09-03T11:27:00;101444.75;;;25.66;34.87
67099;BME280;54288;53.046;5.668;2022-09-03T11:29:48;101423.31;;;25.53;33.94
67099;BME280;54288;53.046;5.668;2022-09-03T11:32:28;101443.56;;;25.70;34.52
67099;BME280;54288;53.046;5.668;2022-09-03T11:34:55;101449.91;;;25.69;32.83
67099;BME280;54288;53.046;5.668;2022-09-03T11:37:27;101434.88;;;25.66;32.83
67099;BME280;54288;53.046;5.668;2022-09-03T11:39:57;101429.06;;;25.72;33.93
67099;BME280;54288;53.046;5.668;2022-09-03T11:42:37;101441.88;;;25.92;32.50
67099;BME280;54288;53.046;5.668;2022-09-03T11:47:57;101413.72;;;25.98;33.53
67099;BME280;54288;53.046;5.668;2022-09-03T11:50:28;101417.41;;;25.97;32.84
67099;BME280;54288;53.046;5.668;2022-09-03T11:53:09;101419.41;;;26.17;31.85
67099;BME280;54288;53.046;5.668;2022-09-03T11:58:36;101414.47;;;26.00;30.72
67099;BME280;54288;53.046;5.668;2022-09-03T12:01:12;101410.69;;;26.02;31.66
67099;BME280;54288;53.046;5.668;2022-09-03T12:03:42;101416.22;;;26.12;31.41
67099;BME280;54288;53.046;5.668;2022-09-03T12:17:57;101418.69;;;26.15;29.08
67099;BME280;54288;53.046;5.668;2022-09-03T12:20:43;101416.00;;;26.15;29.68
67099;BME280;54288;53.046;5.668;2022-09-03T12:23:13;101416.50;;;26.20;29.41
67099;BME280;54288;53.046;5.668;2022-09-03T12:25:46;101425.41;;;26.20;29.69
67099;BME280;54288;53.046;5.668;2022-09-03T12:28:16;101415.53;;;26.21;29.60
67099;BME280;54288;53.046;5.668;2022-09-03T12:30:46;101406.59;;;26.20;29.25
67099;BME280;54288;53.046;5.668;2022-09-03T12:33:12;101407.41;;;26.33;29.72
67099;BME280;54288;53.046;5.668;2022-09-03T12:35:38;101401.88;;;26.35;29.07
67099;BME280;54288;53.046;5.668;2022-09-03T12:38:04;101388.34;;;26.36;30.08
67099;BME280;54288;53.046;5.668;2022-09-03T12:40:30;101398.31;;;26.58;28.56
67099;BME280;54288;53.046;5.668;2022-09-03T12:43:14;101407.13;;;26.60;29.38
67099;BME280;54288;53.046;5.668;2022-09-03T12:45:46;101412.75;;;26.68;29.50
67099;BME280;54288;53.046;5.668;2022-09-03T12:48:14;101409.69;;;26.61;28.90
67099;BME280;54288;53.046;5.668;2022-09-03T12:50:45;101410.03;;;26.57;28.86
67099;BME280;54288;53.046;5.668;2022-09-03T12:53:20;101411.69;;;26.47;28.53
67099;BME280;54288;53.046;5.668;2022-09-03T12:55:54;101399.84;;;26.49;29.28
67099;BME280;54288;53.046;5.668;2022-09-03T13:00:58;101394.06;;;26.77;28.50
67099;BME280;54288;53.046;5.668;2022-09-03T13:06:30;101398.81;;;26.63;28.15
67099;BME280;54288;53.046;5.668;2022-09-03T13:09:02;101402.84;;;26.57;28.34
67099;BME280;54288;53.046;5.668;2022-09-03T13:11:33;101405.16;;;26.62;29.22
67099;BME280;54288;53.046;5.668;2022-09-03T13:14:04;101415.44;;;26.68;28.84
67099;BME280;54288;53.046;5.668;2022-09-03T13:27:18;101404.94;;;26.76;30.10
67099;BME280;54288;53.046;5.668;2022-09-03T13:30:03;101404.69;;;26.68;29.18
67099;BME280;54288;53.046;5.668;2022-09-03T13:35:22;101405.16;;;26.62;29.09
67099;BME280;54288;53.046;5.668;2022-09-03T13:43:07;101403.00;;;26.89;30.09
67099;BME280;54288;53.046;5.668;2022-09-03T13:45:50;101393.47;;;26.85;29.35
67099;BME280;54288;53.046;5.668;2022-09-03T13:48:33;101391.66;;;26.85;29.42
67099;BME280;54288;53.046;5.668;2022-09-03T13:51:28;101381.00;;;26.73;28.77
67099;BME280;54288;53.046;5.668;2022-09-03T13:54:02;101390.03;;;26.72;29.32
67099;BME280;54288;53.046;5.668;2022-09-03T13:56:56;101383.56;;;26.74;29.46
67099;BME280;54288;53.046;5.668;2022-09-03T13:59:43;101379.28;;;26.61;29.33
67099;BME280;54288;53.046;5.668;2022-09-03T14:05:05;101375.38;;;26.76;29.84
67099;BME280;54288;53.046;5.668;2022-09-03T14:12:46;101391.50;;;26.76;28.70
67099;BME280;54288;53.046;5.668;2022-09-03T14:15:25;101385.66;;;26.71;29.53
67099;BME280;54288;53.046;5.668;2022-09-03T14:21:07;101394.41;;;26.62;29.39
67099;BME280;54288;53.046;5.668;2022-09-03T14:26:20;101383.66;;;26.62;29.21
67099;BME280;54288;53.046;5.668;2022-09-03T14:28:58;101379.63;;;26.67;29.98
67099;BME280;54288;53.046;5.668;2022-09-03T14:37:15;101378.91;;;26.65;29.71
67099;BME280;54288;53.046;5.668;2022-09-03T15:07:41;101383.72;;;26.49;30.07
67099;BME280;54288;53.046;5.668;2022-09-03T15:10:31;101387.50;;;26.47;29.97
67099;BME280;54288;53.046;5.668;2022-09-03T15:13:24;101388.75;;;26.43;30.27
67099;BME280;54288;53.046;5.668;2022-09-03T15:18:47;101379.66;;;26.22;30.10
67099;BME280;54288;53.046;5.668;2022-09-03T15:27:05;101401.50;;;26.17;30.33
67099;BME280;54288;53.046;5.668;2022-09-03T15:37:58;101391.78;;;26.04;31.10
67099;BME280;54288;53.046;5.668;2022-09-03T15:40:33;101385.81;;;26.00;30.66
67099;BME280;54288;53.046;5.668;2022-09-03T15:54:11;101404.28;;;25.92;30.78
67099;BME280;54288;53.046;5.668;2022-09-03T16:07:25;101390.72;;;25.70;32.40
67099;BME280;54288;53.046;5.668;2022-09-03T16:10:19;101399.44;;;25.74;31.92
67099;BME280;54288;53.046;5.668;2022-09-03T16:13:18;101396.44;;;25.66;32.06
67099;BME280;54288;53.046;5.668;2022-09-03T16:18:39;101390.84;;;25.45;32.69
67099;BME280;54288;53.046;5.668;2022-09-03T16:24:17;101388.94;;;25.35;32.81
67099;BME280;54288;53.046;5.668;2022-09-03T16:27:03;101401.38;;;25.36;33.46
67099;BME280;54288;53.046;5.668;2022-09-03T16:29:30;101395.50;;;25.31;33.78
67099;BME280;54288;53.046;5.668;2022-09-03T16:40:38;101395.53;;;25.06;34.02
67099;BME280;54288;53.046;5.668;2022-09-03T16:48:30;101403.78;;;24.90;35.30
67099;BME280;54288;53.046;5.668;2022-09-03T16:51:11;101403.47;;;24.70;36.01
67099;BME280;54288;53.046;5.668;2022-09-03T17:13:30;101401.22;;;24.12;37.70
67099;BME280;54288;53.046;5.668;2022-09-03T17:24:31;101415.38;;;23.74;39.44
67099;BME280;54288;53.046;5.668;2022-09-03T17:29:30;101412.78;;;23.46;39.77
67099;BME280;54288;53.046;5.668;2022-09-03T17:32:24;101404.72;;;23.33;40.71
67099;BME280;54288;53.046;5.668;2022-09-03T17:35:45;101409.59;;;23.27;39.98
67099;BME280;54288;53.046;5.668;2022-09-03T17:38:03;101415.84;;;23.12;40.42
67099;BME280;54288;53.046;5.668;2022-09-03T17:41:09;101412.81;;;23.04;40.88
67099;BME280;54288;53.046;5.668;2022-09-03T17:49:51;101402.13;;;22.62;41.63
67099;BME280;54288;53.046;5.668;2022-09-03T17:52:20;101424.63;;;22.58;41.98
67099;BME280;54288;53.046;5.668;2022-09-03T17:54:59;101407.56;;;22.31;42.34
67099;BME280;54288;53.046;5.668;2022-09-03T17:57:31;101417.06;;;22.21;42.42
67099;BME280;54288;53.046;5.668;2022-09-03T18:00:08;101430.41;;;22.21;42.98
67099;BME280;54288;53.046;5.668;2022-09-03T18:03:06;101418.75;;;22.08;42.78
67099;BME280;54288;53.046;5.668;2022-09-03T18:05:55;101440.72;;;21.97;43.71
67099;BME280;54288;53.046;5.668;2022-09-03T18:16:36;101465.66;;;21.50;44.83
67099;BME280;54288;53.046;5.668;2022-09-03T18:19:12;101457.66;;;21.34;45.50
67099;BME280;54288;53.046;5.668;2022-09-03T18:21:42;101465.72;;;21.33;45.43
67099;BME280;54288;53.046;5.668;2022-09-03T18:24:42;101473.63;;;21.19;46.31
67099;BME280;54288;53.046;5.668;2022-09-03T18:27:55;101479.16;;;21.14;46.50